createdAt,value
2023-03-08T00:01:50.182Z,35.30
2023-03-08T00:03:53.404Z,35.30
2023-03-08T00:05:55.210Z,35.40
2023-03-08T00:07:56.946Z,35.30
2023-03-08T00:09:58.730Z,35.30
2023-03-08T00:12:00.500Z,35.40
2023-03-08T00:14:02.318Z,35.40
2023-03-08T00:16:05.152Z,35.40
2023-03-08T00:18:07.028Z,35.40
2023-03-08T00:20:09.546Z,35.40
2023-03-08T00:22:11.638Z,35.40
2023-03-08T00:24:13.388Z,35.40
2023-03-08T00:26:15.142Z,35.40
2023-03-08T00:28:17.018Z,35.40
2023-03-08T00:30:18.875Z,35.40
2023-03-08T00:32:20.696Z,35.40
2023-03-08T00:34:24.643Z,35.40
2023-03-08T00:36:26.383Z,35.40
2023-03-08T00:38:28.609Z,35.40
2023-03-08T00:40:30.392Z,35.40
2023-03-08T00:42:32.191Z,35.40
2023-03-08T00:44:33.993Z,35.50
2023-03-08T00:46:35.717Z,35.50
2023-03-08T00:48:37.631Z,35.40
2023-03-08T00:50:39.451Z,35.40
2023-03-08T00:52:41.238Z,35.40
2023-03-08T00:54:43.101Z,35.50
2023-03-08T00:56:44.937Z,35.40
2023-03-08T00:58:46.764Z,35.40
2023-03-08T01:00:49.207Z,35.50
2023-03-08T01:02:51.042Z,35.50
2023-03-08T01:04:52.852Z,35.50
2023-03-08T01:06:56.183Z,35.50
2023-03-08T01:08:58.015Z,35.50
2023-03-08T01:11:00.412Z,35.50
2023-03-08T01:13:02.507Z,35.50
2023-03-08T01:15:05.034Z,35.40
2023-03-08T01:17:08.372Z,35.40
2023-03-08T01:19:10.605Z,35.40
2023-03-08T01:21:12.388Z,35.50
2023-03-08T01:23:14.209Z,35.50
2023-03-08T01:25:15.983Z,35.50
2023-03-08T01:27:17.775Z,35.60
2023-03-08T01:29:19.594Z,35.50
2023-03-08T01:31:22.767Z,35.50
2023-03-08T01:33:26.302Z,35.50
2023-03-08T01:35:28.080Z,36.10
2023-03-08T01:37:33.004Z,35.50
2023-03-08T01:39:35.005Z,35.50
2023-03-08T01:41:36.754Z,35.50
2023-03-08T01:43:39.220Z,35.50
2023-03-08T01:46:01.168Z,35.60
2023-03-08T01:48:03.082Z,35.60
2023-03-08T01:50:24.972Z,35.60
2023-03-08T01:52:35.535Z,35.60
2023-03-08T01:54:37.448Z,36.20
2023-03-08T01:56:40.356Z,35.60
2023-03-08T01:58:43.579Z,35.60
2023-03-08T02:00:45.860Z,35.60
2023-03-08T02:03:07.880Z,35.60
2023-03-08T02:05:10.317Z,35.60
2023-03-08T02:07:13.622Z,35.60
2023-03-08T02:09:16.445Z,35.60
2023-03-08T02:11:20.715Z,35.60
2023-03-08T02:13:23.442Z,35.60
2023-03-08T02:15:25.344Z,35.60
2023-03-08T02:17:31.047Z,35.60
2023-03-08T02:19:55.700Z,35.60
2023-03-08T02:21:58.231Z,35.60
2023-03-08T02:24:05.834Z,35.60
2023-03-08T02:26:07.560Z,35.60
2023-03-08T02:28:11.041Z,35.60
2023-03-08T02:30:13.786Z,35.50
2023-03-08T02:32:15.884Z,35.50
2023-03-08T02:34:17.695Z,35.60
2023-03-08T02:36:19.405Z,35.60
2023-03-08T02:38:21.846Z,35.60
2023-03-08T02:40:23.624Z,35.60
2023-03-08T02:42:25.487Z,35.60
2023-03-08T02:44:27.249Z,35.50
2023-03-08T02:46:29.102Z,35.60
2023-03-08T02:48:33.048Z,35.60
2023-03-08T02:50:34.890Z,35.60
2023-03-08T02:52:36.719Z,35.60
2023-03-08T02:54:38.507Z,35.60
2023-03-08T02:56:40.342Z,35.60
2023-03-08T02:58:43.491Z,35.60
2023-03-08T03:00:45.267Z,35.70
2023-03-08T03:02:47.670Z,35.70
2023-03-08T03:04:49.420Z,35.70
2023-03-08T03:06:51.282Z,35.60
2023-03-08T03:08:53.313Z,35.60
2023-03-08T03:10:55.446Z,35.60
2023-03-08T03:12:57.236Z,35.60
2023-03-08T03:15:03.514Z,35.60
2023-03-08T03:17:05.351Z,35.60
2023-03-08T03:19:07.194Z,35.70
2023-03-08T03:21:10.208Z,35.70
2023-03-08T03:23:12.049Z,35.60
2023-03-08T03:25:20.197Z,35.70
2023-03-08T03:27:23.382Z,35.70
2023-03-08T03:29:25.393Z,35.60
2023-03-08T03:31:35.327Z,35.70
2023-03-08T03:33:37.542Z,35.70
2023-03-08T03:35:39.644Z,35.70
2023-03-08T03:37:43.060Z,35.70
2023-03-08T03:39:45.083Z,35.70
2023-03-08T03:41:49.822Z,35.70
2023-03-08T03:43:51.840Z,35.70
2023-03-08T03:46:00.879Z,35.70
2023-03-08T03:48:03.225Z,35.70
2023-03-08T03:50:05.724Z,35.70
2023-03-08T03:52:18.096Z,35.70
2023-03-08T03:54:27.573Z,35.70
2023-03-08T03:56:32.462Z,35.70
2023-03-08T03:58:35.582Z,35.70
2023-03-08T04:00:38.517Z,35.70
2023-03-08T04:02:52.232Z,35.70
2023-03-08T04:04:55.293Z,35.70
2023-03-08T04:07:01.076Z,35.70
2023-03-08T04:09:10.792Z,35.70
2023-03-08T04:11:15.643Z,35.70
2023-03-08T04:13:17.905Z,36.30
2023-03-08T04:15:20.209Z,35.70
2023-03-08T04:17:21.982Z,35.70
2023-03-08T04:19:27.546Z,35.80
2023-03-08T04:21:33.039Z,35.70
2023-03-08T04:23:35.860Z,35.70
2023-03-08T04:25:40.029Z,35.70
2023-03-08T04:27:44.613Z,35.70
2023-03-08T04:29:46.686Z,35.60
2023-03-08T04:31:48.926Z,35.70
2023-03-08T04:33:54.052Z,35.70
2023-03-08T04:35:56.354Z,35.70
2023-03-08T04:37:59.903Z,35.70
2023-03-08T04:40:03.264Z,35.70
2023-03-08T04:42:07.706Z,35.70
2023-03-08T04:44:10.592Z,35.70
2023-03-08T04:46:17.875Z,35.70
2023-03-08T04:48:20.152Z,35.80
2023-03-08T04:50:22.587Z,35.80
2023-03-08T04:52:25.319Z,35.80
2023-03-08T04:54:27.922Z,35.70
2023-03-08T04:56:37.707Z,36.30
2023-03-08T04:58:39.961Z,35.70
2023-03-08T05:00:41.965Z,35.70
2023-03-08T05:02:44.554Z,35.80
2023-03-08T05:04:51.113Z,35.80
2023-03-08T05:06:53.102Z,35.80
2023-03-08T05:08:59.259Z,35.70
2023-03-08T05:11:01.771Z,35.70
2023-03-08T05:13:07.442Z,35.80
2023-03-08T05:15:09.677Z,35.70
2023-03-08T05:17:11.490Z,35.70
2023-03-08T05:19:13.744Z,35.70
2023-03-08T05:21:22.907Z,35.80
2023-03-08T05:23:29.395Z,35.80
2023-03-08T05:25:32.220Z,35.80
2023-03-08T05:27:35.605Z,35.70
2023-03-08T05:29:38.580Z,35.80
2023-03-08T05:31:41.223Z,35.80
2023-03-08T05:33:45.881Z,35.80
2023-03-08T05:35:53.739Z,35.80
2023-03-08T05:37:56.418Z,35.80
2023-03-08T05:39:58.764Z,35.70
2023-03-08T05:42:00.650Z,35.70
2023-03-08T05:44:09.874Z,35.80
2023-03-08T05:46:19.355Z,35.80
2023-03-08T05:48:22.637Z,35.70
2023-03-08T05:50:24.471Z,35.80
2023-03-08T05:52:29.053Z,35.80
2023-03-08T05:54:33.542Z,35.80
2023-03-08T05:56:39.140Z,35.80
2023-03-08T05:58:48.341Z,35.80
2023-03-08T06:00:51.340Z,35.80
2023-03-08T06:02:53.297Z,35.80
2023-03-08T06:04:56.136Z,35.90
2023-03-08T06:07:00.674Z,35.80
2023-03-08T06:09:08.599Z,35.80
2023-03-08T06:11:15.096Z,35.80
2023-03-08T06:13:18.935Z,35.90
2023-03-08T06:15:20.786Z,35.80
2023-03-08T06:17:22.733Z,35.80
2023-03-08T06:19:26.038Z,35.80
2023-03-08T06:21:30.380Z,35.80
2023-03-08T06:23:37.934Z,35.80
2023-03-08T06:25:39.795Z,35.80
2023-03-08T06:27:42.082Z,35.80
2023-03-08T06:29:51.747Z,35.80
2023-03-08T06:31:54.634Z,35.80
2023-03-08T06:33:57.365Z,35.80
2023-03-08T06:36:11.969Z,36.40
2023-03-08T06:38:13.704Z,35.80
2023-03-08T06:40:15.642Z,35.80
2023-03-08T06:42:17.419Z,35.80
2023-03-08T06:44:19.170Z,35.80
2023-03-08T06:46:21.020Z,35.80
2023-03-08T06:48:23.301Z,35.80
2023-03-08T06:50:26.371Z,35.80
2023-03-08T06:52:28.417Z,35.80
2023-03-08T06:54:30.541Z,35.80
2023-03-08T06:56:32.472Z,35.80
2023-03-08T06:58:37.513Z,35.80
2023-03-08T07:00:39.278Z,35.80
2023-03-08T07:02:41.085Z,35.80
2023-03-08T07:04:42.905Z,35.80
2023-03-08T07:06:44.852Z,35.90
2023-03-08T07:08:46.618Z,35.80
2023-03-08T07:10:48.385Z,35.80
2023-03-08T07:12:50.591Z,35.80
2023-03-08T07:14:52.569Z,35.90
2023-03-08T07:16:54.388Z,35.90
2023-03-08T07:18:56.155Z,35.90
2023-03-08T07:20:58.360Z,35.80
2023-03-08T07:23:00.146Z,35.80
2023-03-08T07:25:01.920Z,35.80
2023-03-08T07:27:03.839Z,35.90
2023-03-08T07:29:05.742Z,35.80
2023-03-08T07:31:09.890Z,36.00
2023-03-08T07:33:11.955Z,35.90
2023-03-08T07:35:15.145Z,35.90
2023-03-08T07:37:16.950Z,35.90
2023-03-08T07:39:18.675Z,35.90
2023-03-08T07:41:20.504Z,35.90
2023-03-08T07:43:22.563Z,35.90
2023-03-08T07:45:32.752Z,35.90
2023-03-08T07:47:34.561Z,35.90
2023-03-08T07:49:36.323Z,35.90
2023-03-08T07:51:38.104Z,36.00
2023-03-08T07:53:39.904Z,36.00
2023-03-08T07:55:41.654Z,36.10
2023-03-08T07:57:43.444Z,35.90
2023-03-08T07:59:45.205Z,35.90
2023-03-08T08:01:47.089Z,36.10
2023-03-08T08:03:48.923Z,36.00
2023-03-08T08:05:50.933Z,36.10
2023-03-08T08:07:52.710Z,36.10
2023-03-08T08:09:54.522Z,36.10
2023-03-08T08:11:56.284Z,36.30
2023-03-08T08:13:58.417Z,36.40
2023-03-08T08:16:01.415Z,36.40
2023-03-08T08:18:28.100Z,36.50
2023-03-08T08:20:29.874Z,36.60
2023-03-08T08:22:31.624Z,36.50
2023-03-08T08:24:33.369Z,36.90
2023-03-08T08:26:35.122Z,36.60
2023-03-08T08:28:37.615Z,36.50
2023-03-08T08:30:39.361Z,36.60
2023-03-08T08:32:41.206Z,36.50
2023-03-08T08:34:43.018Z,36.60
2023-03-08T08:36:44.914Z,36.40
2023-03-08T08:38:47.536Z,36.30
2023-03-08T08:40:49.327Z,36.00
2023-03-08T08:42:51.064Z,36.00
2023-03-08T08:44:53.322Z,36.70
2023-03-08T08:46:55.071Z,36.00
2023-03-08T08:48:57.778Z,35.50
2023-03-08T08:51:00.004Z,35.90
2023-03-08T08:53:01.872Z,35.30
2023-03-08T08:55:03.900Z,35.10
2023-03-08T08:57:08.580Z,34.80
2023-03-08T08:59:11.809Z,34.80
2023-03-08T09:01:14.654Z,35.00
2023-03-08T09:03:16.426Z,34.90
2023-03-08T09:05:18.215Z,35.00
2023-03-08T09:07:19.983Z,35.20
2023-03-08T09:09:21.785Z,34.80
2023-03-08T09:11:24.600Z,34.50
2023-03-08T09:13:26.553Z,34.70
2023-03-08T09:15:28.290Z,34.70
2023-03-08T09:17:30.085Z,34.90
2023-03-08T09:19:31.936Z,34.50
2023-03-08T09:21:34.057Z,34.70
2023-03-08T09:23:35.907Z,34.50
2023-03-08T09:25:37.712Z,34.80
2023-03-08T09:27:40.268Z,34.70
2023-03-08T09:29:42.193Z,35.10
2023-03-08T09:31:43.917Z,35.10
2023-03-08T09:33:46.946Z,35.00
2023-03-08T09:35:58.346Z,35.00
2023-03-08T09:38:00.435Z,35.40
2023-03-08T09:40:02.272Z,35.30
2023-03-08T09:42:04.825Z,35.40
2023-03-08T09:44:09.410Z,35.20
2023-03-08T09:46:13.598Z,35.20
2023-03-08T09:48:22.660Z,35.30
2023-03-08T09:50:24.478Z,35.40
2023-03-08T09:52:32.817Z,35.50
2023-03-08T09:54:35.242Z,35.70
2023-03-08T09:56:43.872Z,35.40
2023-03-08T09:59:04.464Z,35.40
2023-03-08T10:01:29.407Z,35.50
2023-03-08T10:03:31.223Z,35.70
2023-03-08T10:05:32.949Z,36.00
2023-03-08T10:07:37.738Z,36.00
2023-03-08T10:09:42.644Z,35.80
2023-03-08T10:12:02.891Z,35.90
2023-03-08T10:14:16.123Z,36.00
2023-03-08T10:16:29.322Z,36.00
2023-03-08T10:18:43.078Z,35.60
2023-03-08T10:20:45.475Z,35.80
2023-03-08T10:22:51.290Z,35.90
2023-03-08T10:25:00.649Z,35.90
2023-03-08T10:27:25.187Z,35.90
2023-03-08T10:29:27.147Z,36.20
2023-03-08T10:31:30.809Z,35.70
2023-03-08T10:33:34.182Z,36.00
2023-03-08T10:35:37.665Z,36.00
2023-03-08T10:37:39.650Z,36.30
2023-03-08T10:39:51.955Z,36.10
2023-03-08T10:41:55.679Z,36.20
2023-03-08T10:43:57.439Z,36.70
2023-03-08T10:46:06.625Z,36.90
2023-03-08T10:48:17.482Z,36.50
2023-03-08T10:50:20.913Z,36.40
2023-03-08T10:52:26.537Z,36.60
2023-03-08T10:54:28.875Z,36.70
2023-03-08T10:56:38.358Z,36.80
2023-03-08T10:58:40.287Z,36.70
2023-03-08T11:00:43.290Z,37.10
2023-03-08T11:02:45.445Z,37.00
2023-03-08T11:04:51.290Z,36.90
2023-03-08T11:06:53.240Z,37.50
2023-03-08T11:08:59.635Z,37.00
2023-03-08T11:11:02.377Z,37.00
2023-03-08T11:13:39.715Z,37.90
2023-03-08T11:15:44.207Z,37.40
2023-03-08T11:17:48.805Z,37.80
2023-03-08T11:20:09.346Z,38.00
2023-03-08T11:22:18.646Z,37.90
2023-03-08T11:24:26.950Z,37.80
2023-03-08T11:26:41.785Z,37.50
2023-03-08T11:28:43.606Z,37.60
2023-03-08T11:30:48.160Z,37.20
2023-03-08T11:33:09.007Z,37.70
2023-03-08T11:35:19.766Z,37.90
2023-03-08T11:37:25.688Z,38.10
2023-03-08T11:39:37.703Z,38.00
2023-03-08T11:41:54.743Z,38.10
2023-03-08T11:43:56.487Z,38.30
2023-03-08T11:46:10.100Z,38.10
2023-03-08T11:48:25.528Z,38.30
2023-03-08T11:50:27.299Z,38.20
2023-03-08T11:52:41.153Z,38.20
2023-03-08T11:54:52.689Z,38.30
2023-03-08T11:56:55.074Z,38.60
2023-03-08T11:59:18.035Z,38.30
2023-03-08T12:01:22.460Z,38.50
2023-03-08T12:03:26.765Z,38.60
2023-03-08T12:05:29.850Z,38.60
2023-03-08T12:07:50.481Z,38.90
2023-03-08T12:10:04.605Z,38.60
2023-03-08T12:12:10.401Z,39.10
2023-03-08T12:14:18.567Z,39.00
2023-03-08T12:16:25.759Z,39.10
2023-03-08T12:18:36.793Z,38.90
2023-03-08T12:20:40.242Z,38.70
2023-03-08T12:22:46.843Z,38.60
2023-03-08T12:24:53.770Z,38.50
2023-03-08T12:26:59.828Z,38.70
2023-03-08T12:29:09.487Z,38.60
2023-03-08T12:31:26.854Z,38.60
2023-03-08T12:33:30.047Z,39.10
2023-03-08T12:35:33.555Z,38.40
2023-03-08T12:37:35.489Z,38.40
2023-03-08T12:39:37.505Z,38.40
2023-03-08T12:41:39.246Z,38.60
2023-03-08T12:43:41.063Z,38.70
2023-03-08T12:45:44.003Z,38.80
2023-03-08T12:48:04.302Z,38.60
2023-03-08T12:50:10.634Z,39.10
2023-03-08T12:52:18.594Z,39.20
2023-03-08T12:54:21.746Z,39.20
2023-03-08T12:56:29.997Z,39.50
2023-03-08T12:58:32.577Z,39.00
2023-03-08T13:00:36.616Z,39.70
2023-03-08T13:02:38.430Z,39.90
2023-03-08T13:04:42.188Z,40.00
2023-03-08T13:07:00.284Z,39.70
2023-03-08T13:09:15.696Z,40.00
2023-03-08T13:11:17.882Z,40.40
2023-03-08T13:13:38.704Z,40.20
2023-03-08T13:15:41.058Z,40.30
2023-03-08T13:17:48.805Z,40.20
2023-03-08T13:19:51.940Z,40.10
2023-03-08T13:21:53.731Z,39.70
2023-03-08T13:24:01.486Z,40.10
2023-03-08T13:26:09.473Z,40.00
2023-03-08T13:28:16.125Z,39.90
2023-03-08T13:30:50.226Z,39.90
2023-03-08T13:32:52.212Z,39.80
2023-03-08T13:35:04.754Z,39.70
2023-03-08T13:37:19.202Z,39.80
2023-03-08T13:39:22.441Z,39.70
2023-03-08T13:41:31.003Z,39.70
2023-03-08T13:43:33.985Z,39.80
2023-03-08T13:45:35.978Z,39.90
2023-03-08T13:47:38.707Z,39.80
2023-03-08T13:49:42.822Z,40.70
2023-03-08T13:51:46.292Z,40.30
2023-03-08T13:53:48.219Z,40.00
2023-03-08T13:55:52.147Z,39.80
2023-03-08T13:57:54.004Z,39.60
2023-03-08T13:59:57.428Z,39.50
2023-03-08T14:01:59.311Z,39.50
2023-03-08T14:04:10.260Z,39.50
2023-03-08T14:06:22.564Z,39.40
2023-03-08T14:08:25.529Z,39.90
2023-03-08T14:10:45.433Z,39.70
2023-03-08T14:12:47.264Z,39.70
2023-03-08T14:14:54.357Z,40.00
2023-03-08T14:16:56.499Z,39.80
2023-03-08T14:18:59.632Z,40.10
2023-03-08T14:21:01.569Z,40.10
2023-03-08T14:23:03.757Z,40.00
2023-03-08T14:25:05.781Z,40.30
2023-03-08T14:27:07.611Z,40.20
2023-03-08T14:29:12.118Z,41.10
2023-03-08T14:31:23.994Z,40.40
2023-03-08T14:33:40.286Z,41.30
2023-03-08T14:35:45.007Z,41.00
2023-03-08T14:37:46.906Z,41.10
2023-03-08T14:39:49.535Z,41.00
2023-03-08T14:41:51.410Z,41.20
2023-03-08T14:43:53.246Z,41.10
2023-03-08T14:45:56.447Z,41.00
2023-03-08T14:48:16.757Z,41.10
2023-03-08T14:50:23.167Z,41.10
2023-03-08T14:52:27.039Z,41.20
2023-03-08T14:54:28.759Z,41.00
2023-03-08T14:56:30.673Z,40.80
2023-03-08T14:58:33.580Z,41.30
2023-03-08T15:00:35.376Z,40.90
2023-03-08T15:02:37.286Z,41.10
2023-03-08T15:04:39.165Z,41.30
2023-03-08T15:06:41.118Z,41.20
2023-03-08T15:08:43.067Z,41.50
2023-03-08T15:10:45.171Z,41.60
2023-03-08T15:12:46.978Z,41.40
2023-03-08T15:14:48.772Z,41.50
2023-03-08T15:16:50.547Z,41.70
2023-03-08T15:18:52.314Z,41.80
2023-03-08T15:20:54.239Z,41.40
2023-03-08T15:22:59.088Z,41.70
2023-03-08T15:25:00.993Z,41.70
2023-03-08T15:27:03.243Z,41.80
2023-03-08T15:29:04.985Z,41.80
2023-03-08T15:31:06.826Z,41.80
2023-03-08T15:33:08.814Z,42.40
2023-03-08T15:35:10.899Z,42.10
2023-03-08T15:37:14.302Z,41.70
2023-03-08T15:39:16.215Z,41.60
2023-03-08T15:41:18.095Z,41.60
2023-03-08T15:43:19.849Z,41.80
2023-03-08T15:45:21.707Z,41.90
2023-03-08T15:47:23.536Z,41.80
2023-03-08T15:49:25.334Z,41.80
2023-03-08T15:51:31.376Z,42.30
2023-03-08T15:53:36.056Z,41.90
2023-03-08T15:55:38.653Z,41.90
2023-03-08T15:57:40.713Z,41.70
2023-03-08T15:59:42.656Z,41.80
2023-03-08T16:01:44.470Z,41.90
2023-03-08T16:03:46.260Z,42.10
2023-03-08T16:05:48.009Z,41.80
2023-03-08T16:07:56.651Z,42.00
2023-03-08T16:09:58.431Z,42.20
2023-03-08T16:12:00.193Z,42.00
2023-03-08T16:14:02.027Z,42.20
2023-03-08T16:16:04.516Z,42.10
2023-03-08T16:18:06.387Z,42.00
2023-03-08T16:20:08.525Z,42.10
2023-03-08T16:22:10.637Z,42.60
2023-03-08T16:24:12.359Z,42.20
2023-03-08T16:26:17.224Z,42.40
2023-03-08T16:28:19.437Z,42.00
2023-03-08T16:30:21.310Z,42.10
2023-03-08T16:32:23.202Z,42.30
2023-03-08T16:34:25.494Z,42.70
2023-03-08T16:36:27.250Z,43.10
2023-03-08T16:38:29.137Z,42.80
2023-03-08T16:40:30.908Z,44.00
2023-03-08T16:42:33.081Z,43.20
2023-03-08T16:44:34.882Z,42.90
2023-03-08T16:46:36.605Z,42.80
2023-03-08T16:48:38.366Z,43.00
2023-03-08T16:50:40.137Z,43.00
2023-03-08T16:52:41.876Z,43.00
2023-03-08T16:54:43.992Z,42.70
2023-03-08T16:56:45.732Z,42.90
2023-03-08T16:58:47.692Z,42.70
2023-03-08T17:00:49.493Z,42.40
2023-03-08T17:02:51.359Z,42.40
2023-03-08T17:04:53.262Z,42.40
2023-03-08T17:06:55.066Z,41.80
2023-03-08T17:08:57.870Z,42.10
2023-03-08T17:10:59.650Z,41.90
2023-03-08T17:13:01.421Z,42.30
2023-03-08T17:15:03.380Z,42.60
2023-03-08T17:17:05.185Z,42.70
2023-03-08T17:19:07.867Z,42.60
2023-03-08T17:21:09.722Z,42.40
2023-03-08T17:23:11.926Z,42.60
2023-03-08T17:25:13.779Z,42.60
2023-03-08T17:27:15.608Z,42.40
2023-03-08T17:29:17.438Z,42.40
2023-03-08T17:31:21.040Z,42.50
2023-03-08T17:33:23.096Z,42.60
2023-03-08T17:35:25.820Z,42.60
2023-03-08T17:37:27.655Z,42.70
2023-03-08T17:39:29.464Z,42.80
2023-03-08T17:41:31.360Z,42.80
2023-03-08T17:43:33.578Z,42.70
2023-03-08T17:45:35.360Z,42.80
2023-03-08T17:47:37.167Z,42.80
2023-03-08T17:49:39.932Z,42.80
2023-03-08T17:51:42.710Z,42.80
2023-03-08T17:53:44.943Z,42.80
2023-03-08T17:55:46.767Z,42.80
2023-03-08T17:57:48.531Z,42.80
2023-03-08T17:59:50.990Z,42.70
2023-03-08T18:01:52.775Z,42.80
2023-03-08T18:03:54.842Z,42.90
2023-03-08T18:05:56.595Z,42.90
2023-03-08T18:07:58.383Z,42.90
2023-03-08T18:10:00.293Z,43.10
2023-03-08T18:12:02.841Z,43.10
2023-03-08T18:14:08.451Z,43.00
2023-03-08T18:16:10.644Z,43.00
2023-03-08T18:18:12.605Z,43.10
2023-03-08T18:20:14.428Z,43.10
2023-03-08T18:22:17.319Z,43.10
2023-03-08T18:24:19.050Z,43.10
2023-03-08T18:26:20.842Z,43.00
2023-03-08T18:28:22.637Z,43.00
2023-03-08T18:30:24.406Z,43.00
2023-03-08T18:32:26.204Z,43.10
2023-03-08T18:34:28.262Z,43.10
2023-03-08T18:36:30.105Z,43.80
2023-03-08T18:38:32.098Z,43.20
2023-03-08T18:40:33.854Z,43.30
2023-03-08T18:42:35.676Z,43.10
2023-03-08T18:44:37.449Z,43.20
2023-03-08T18:46:39.569Z,43.30
2023-03-08T18:48:41.850Z,43.40
2023-03-08T18:50:43.616Z,43.40
2023-03-08T18:52:45.451Z,43.40
2023-03-08T18:54:47.361Z,43.40
2023-03-08T18:56:49.314Z,43.40
2023-03-08T18:58:51.492Z,43.40
2023-03-08T19:00:54.849Z,43.40
2023-03-08T19:02:56.969Z,43.40
2023-03-08T19:04:58.746Z,43.40
2023-03-08T19:07:00.462Z,43.40
2023-03-08T19:09:12.082Z,43.30
2023-03-08T19:11:15.127Z,43.30
2023-03-08T19:13:17.014Z,43.30
2023-03-08T19:15:18.703Z,43.30
2023-03-08T19:17:20.483Z,43.30
2023-03-08T19:19:22.205Z,43.30
2023-03-08T19:21:25.303Z,43.30
2023-03-08T19:23:27.099Z,43.20
2023-03-08T19:25:32.353Z,43.20
2023-03-08T19:27:34.515Z,43.20
2023-03-08T19:29:36.309Z,43.30
2023-03-08T19:31:40.094Z,43.30
2023-03-08T19:33:42.542Z,43.30
2023-03-08T19:35:44.287Z,43.20
2023-03-08T19:37:46.090Z,43.20
2023-03-08T19:39:47.870Z,43.20
2023-03-08T19:41:51.014Z,43.20
2023-03-08T19:43:53.143Z,43.20
2023-03-08T19:45:55.348Z,43.20
2023-03-08T19:47:57.148Z,43.20
2023-03-08T19:49:58.904Z,43.20
2023-03-08T19:52:02.332Z,43.10
2023-03-08T19:54:04.649Z,43.10
2023-03-08T19:56:06.551Z,43.20
2023-03-08T19:58:08.314Z,43.10
2023-03-08T20:00:10.528Z,43.20
2023-03-08T20:02:15.393Z,43.10
2023-03-08T20:04:18.856Z,43.10
2023-03-08T20:06:31.290Z,43.10
2023-03-08T20:08:33.084Z,43.10
2023-03-08T20:10:34.890Z,43.10
2023-03-08T20:12:36.654Z,43.10
2023-03-08T20:14:38.427Z,43.00
2023-03-08T20:16:40.195Z,43.10
2023-03-08T20:18:42.077Z,43.10
2023-03-08T20:20:43.837Z,43.00
2023-03-08T20:22:45.601Z,43.00
2023-03-08T20:24:47.391Z,43.00
2023-03-08T20:26:49.299Z,43.10
2023-03-08T20:28:51.350Z,43.10
2023-03-08T20:30:53.232Z,43.10
2023-03-08T20:32:55.174Z,43.10
2023-03-08T20:34:57.047Z,43.00
2023-03-08T20:36:58.806Z,43.00
2023-03-08T20:39:00.646Z,43.00
2023-03-08T20:41:04.559Z,43.00
2023-03-08T20:43:06.320Z,43.00
2023-03-08T20:45:08.403Z,43.00
2023-03-08T20:47:10.197Z,42.90
2023-03-08T20:49:11.973Z,42.90
2023-03-08T20:51:15.011Z,42.90
2023-03-08T20:53:16.770Z,42.90
2023-03-08T20:55:18.644Z,42.90
2023-03-08T20:57:20.448Z,43.00
2023-03-08T20:59:22.225Z,43.00
2023-03-08T21:01:25.956Z,42.80
2023-03-08T21:03:27.749Z,42.80
2023-03-08T21:05:31.999Z,42.80
2023-03-08T21:07:33.805Z,42.90
2023-03-08T21:09:35.614Z,42.80
2023-03-08T21:11:37.426Z,42.80
2023-03-08T21:13:39.176Z,42.70
2023-03-08T21:15:40.953Z,42.80
2023-03-08T21:17:42.772Z,42.70
2023-03-08T21:19:44.567Z,42.70
2023-03-08T21:21:46.318Z,42.80
2023-03-08T21:23:48.111Z,42.80
2023-03-08T21:25:50.431Z,42.80
2023-03-08T21:27:52.175Z,43.40
2023-03-08T21:29:56.832Z,42.80
2023-03-08T21:31:58.816Z,42.80
2023-03-08T21:34:06.865Z,42.70
2023-03-08T21:36:08.749Z,42.70
2023-03-08T21:38:10.558Z,42.70
2023-03-08T21:40:12.520Z,42.70
2023-03-08T21:42:14.274Z,42.70
2023-03-08T21:44:17.476Z,42.80
2023-03-08T21:46:19.793Z,42.70
2023-03-08T21:48:21.682Z,42.70
2023-03-08T21:50:23.991Z,42.70
2023-03-08T21:52:25.767Z,42.80
2023-03-08T21:54:28.536Z,42.70
2023-03-08T21:56:30.278Z,42.70
2023-03-08T21:58:32.081Z,42.70
2023-03-08T22:00:33.847Z,42.70
2023-03-08T22:02:35.611Z,42.70
2023-03-08T22:04:37.665Z,42.60
2023-03-08T22:06:39.411Z,42.70
2023-03-08T22:08:41.265Z,42.60
2023-03-08T22:10:42.998Z,42.60
2023-03-08T22:12:44.745Z,42.60
2023-03-08T22:14:46.734Z,42.60
2023-03-08T22:16:48.560Z,42.60
2023-03-08T22:18:53.676Z,42.60
2023-03-08T22:20:55.438Z,42.60
2023-03-08T22:22:57.208Z,42.60
2023-03-08T22:24:59.031Z,42.50
2023-03-08T22:27:00.808Z,42.50
2023-03-08T22:29:02.592Z,42.60
2023-03-08T22:31:09.315Z,42.60
2023-03-08T22:33:11.225Z,42.60
2023-03-08T22:35:13.016Z,42.60
2023-03-08T22:37:15.211Z,42.60
2023-03-08T22:39:17.009Z,42.60
2023-03-08T22:41:20.343Z,42.50
2023-03-08T22:43:22.163Z,42.60
2023-03-08T22:45:23.916Z,42.60
2023-03-08T22:47:25.828Z,42.60
2023-03-08T22:49:27.568Z,42.60
2023-03-08T22:51:29.323Z,42.60
2023-03-08T22:53:31.123Z,42.60
2023-03-08T22:55:33.137Z,42.60
2023-03-08T22:57:38.015Z,42.50
2023-03-08T22:59:39.949Z,42.50
2023-03-08T23:01:41.771Z,42.80
2023-03-08T23:03:43.731Z,42.60
2023-03-08T23:05:45.508Z,42.60
2023-03-08T23:07:47.304Z,42.60
2023-03-08T23:09:49.056Z,42.60
2023-03-08T23:11:50.860Z,42.60
2023-03-08T23:13:52.741Z,42.70
2023-03-08T23:15:54.535Z,43.20
2023-03-08T23:17:56.356Z,42.60
2023-03-08T23:19:58.119Z,42.60
2023-03-08T23:21:59.895Z,42.60
2023-03-08T23:24:01.657Z,42.60
2023-03-08T23:26:04.180Z,42.60
2023-03-08T23:28:06.656Z,42.60
2023-03-08T23:30:09.623Z,42.60
2023-03-08T23:32:11.487Z,42.60
2023-03-08T23:34:13.360Z,42.60
2023-03-08T23:36:16.250Z,42.60
2023-03-08T23:38:18.071Z,42.60
2023-03-08T23:40:19.900Z,42.50
2023-03-08T23:42:21.669Z,42.60
2023-03-08T23:44:23.447Z,42.60
2023-03-08T23:46:25.858Z,42.70
2023-03-08T23:48:27.661Z,42.60
2023-03-08T23:50:29.430Z,42.70
2023-03-08T23:52:31.188Z,42.50
2023-03-08T23:54:32.953Z,42.50
2023-03-08T23:56:35.921Z,42.60
2023-03-08T23:58:37.711Z,42.60
